Terminal Aerodrome Forecast
Issued by NWS Honolulu, HI

Current Version | Previous Version | Text Only | Print | Product List | Glossary On
Versions: 1 2 3 4 5 6 7 8 9 10 11 12 13 14 15 16 17 18 19 20 21 22 23 24 25 26 27 28
000
FTPA31 PHFO 290817 AAA
TAFHNL
TAF AMD
PHNL 290817Z 2908/3012 07012G18KT P6SM FEW025 SCT045
     FM292000 07015G24KT P6SM FEW025 SCT045
     FM300500 04011KT P6SM FEW025 SCT045=

USA.gov is the U.S. government's official web portal to all federal, state and local government web resources and services.